sensor_id;sensor_type;location;lat;lon;timestamp;P1;durP1;ratioP1;P2;durP2;ratioP2
37543;SDS011;23385;52.038;20.322;2022-09-25T00:00:34;21.30;;;13.63;;
37543;SDS011;23385;52.038;20.322;2022-09-25T00:03:01;17.40;;;13.07;;
37543;SDS011;23385;52.038;20.322;2022-09-25T00:05:28;18.10;;;13.77;;
37543;SDS011;23385;52.038;20.322;2022-09-25T00:07:53;24.93;;;13.87;;
37543;SDS011;23385;52.038;20.322;2022-09-25T00:10:20;27.03;;;14.60;;
37543;SDS011;23385;52.038;20.322;2022-09-25T00:12:49;24.57;;;14.27;;
37543;SDS011;23385;52.038;20.322;2022-09-25T00:15:16;17.90;;;13.63;;
37543;SDS011;23385;52.038;20.322;2022-09-25T00:17:42;16.77;;;13.37;;
37543;SDS011;23385;52.038;20.322;2022-09-25T00:20:08;23.87;;;14.37;;
37543;SDS011;23385;52.038;20.322;2022-09-25T00:22:34;17.53;;;13.27;;
37543;SDS011;23385;52.038;20.322;2022-09-25T00:25:00;21.03;;;14.50;;
37543;SDS011;23385;52.038;20.322;2022-09-25T00:27:26;108.07;;;40.47;;
37543;SDS011;23385;52.038;20.322;2022-09-25T00:29:52;82.73;;;31.30;;
37543;SDS011;23385;52.038;20.322;2022-09-25T00:32:20;54.57;;;22.80;;
37543;SDS011;23385;52.038;20.322;2022-09-25T00:34:47;48.00;;;20.63;;
37543;SDS011;23385;52.038;20.322;2022-09-25T00:37:14;33.83;;;17.70;;
37543;SDS011;23385;52.038;20.322;2022-09-25T00:39:40;27.30;;;15.80;;
37543;SDS011;23385;52.038;20.322;2022-09-25T00:42:06;20.87;;;14.73;;
37543;SDS011;23385;52.038;20.322;2022-09-25T00:47:21;18.90;;;14.73;;
37543;SDS011;23385;52.038;20.322;2022-09-25T00:49:49;18.40;;;13.70;;
37543;SDS011;23385;52.038;20.322;2022-09-25T00:52:17;24.00;;;14.47;;
37543;SDS011;23385;52.038;20.322;2022-09-25T00:54:47;21.03;;;14.17;;
37543;SDS011;23385;52.038;20.322;2022-09-25T00:57:18;21.37;;;15.13;;
37543;SDS011;23385;52.038;20.322;2022-09-25T00:59:46;19.47;;;14.33;;
37543;SDS011;23385;52.038;20.322;2022-09-25T01:02:18;20.10;;;14.80;;
37543;SDS011;23385;52.038;20.322;2022-09-25T01:04:49;27.60;;;15.50;;
37543;SDS011;23385;52.038;20.322;2022-09-25T01:07:16;22.40;;;15.07;;
37543;SDS011;23385;52.038;20.322;2022-09-25T01:09:43;25.20;;;15.87;;
37543;SDS011;23385;52.038;20.322;2022-09-25T01:12:10;22.53;;;15.47;;
37543;SDS011;23385;52.038;20.322;2022-09-25T01:14:37;20.30;;;15.77;;
37543;SDS011;23385;52.038;20.322;2022-09-25T01:31:40;23.63;;;17.80;;
37543;SDS011;23385;52.038;20.322;2022-09-25T01:34:55;23.17;;;17.17;;
37543;SDS011;23385;52.038;20.322;2022-09-25T01:37:25;24.17;;;16.83;;
37543;SDS011;23385;52.038;20.322;2022-09-25T01:42:24;24.23;;;17.00;;
37543;SDS011;23385;52.038;20.322;2022-09-25T01:44:57;26.07;;;17.10;;
37543;SDS011;23385;52.038;20.322;2022-09-25T01:47:30;27.27;;;18.50;;
37543;SDS011;23385;52.038;20.322;2022-09-25T01:50:07;23.93;;;17.97;;
37543;SDS011;23385;52.038;20.322;2022-09-25T01:52:39;23.27;;;17.87;;
37543;SDS011;23385;52.038;20.322;2022-09-25T01:57:44;24.40;;;18.53;;
37543;SDS011;23385;52.038;20.322;2022-09-25T02:00:21;26.80;;;17.83;;
37543;SDS011;23385;52.038;20.322;2022-09-25T02:02:56;29.27;;;19.90;;
37543;SDS011;23385;52.038;20.322;2022-09-25T02:05:42;27.27;;;17.50;;
37543;SDS011;23385;52.038;20.322;2022-09-25T02:08:47;25.67;;;17.87;;
37543;SDS011;23385;52.038;20.322;2022-09-25T02:11:08;26.50;;;17.53;;
37543;SDS011;23385;52.038;20.322;2022-09-25T02:18:45;27.63;;;17.87;;
37543;SDS011;23385;52.038;20.322;2022-09-25T02:24:39;27.77;;;18.70;;
37543;SDS011;23385;52.038;20.322;2022-09-25T02:27:12;29.27;;;19.60;;
37543;SDS011;23385;52.038;20.322;2022-09-25T02:29:39;42.67;;;24.07;;
37543;SDS011;23385;52.038;20.322;2022-09-25T02:32:06;44.97;;;24.23;;
37543;SDS011;23385;52.038;20.322;2022-09-25T02:34:34;33.80;;;20.67;;
37543;SDS011;23385;52.038;20.322;2022-09-25T02:37:00;27.40;;;19.37;;
37543;SDS011;23385;52.038;20.322;2022-09-25T02:39:28;36.10;;;20.83;;
37543;SDS011;23385;52.038;20.322;2022-09-25T02:48:02;32.20;;;19.47;;
37543;SDS011;23385;52.038;20.322;2022-09-25T02:50:20;23.23;;;16.93;;
37543;SDS011;23385;52.038;20.322;2022-09-25T02:56:01;27.40;;;17.03;;
37543;SDS011;23385;52.038;20.322;2022-09-25T02:58:46;24.53;;;17.43;;
37543;SDS011;23385;52.038;20.322;2022-09-25T03:01:15;25.07;;;17.67;;
37543;SDS011;23385;52.038;20.322;2022-09-25T03:03:44;23.93;;;17.90;;
37543;SDS011;23385;52.038;20.322;2022-09-25T03:06:12;23.80;;;17.40;;
37543;SDS011;23385;52.038;20.322;2022-09-25T03:08:39;26.27;;;17.37;;
37543;SDS011;23385;52.038;20.322;2022-09-25T03:11:13;23.70;;;16.67;;
37543;SDS011;23385;52.038;20.322;2022-09-25T03:13:40;26.27;;;17.77;;
37543;SDS011;23385;52.038;20.322;2022-09-25T03:19:17;24.17;;;17.17;;
37543;SDS011;23385;52.038;20.322;2022-09-25T03:21:46;27.53;;;18.23;;
37543;SDS011;23385;52.038;20.322;2022-09-25T03:24:12;27.07;;;19.97;;
37543;SDS011;23385;52.038;20.322;2022-09-25T03:26:41;34.37;;;21.93;;
37543;SDS011;23385;52.038;20.322;2022-09-25T03:29:07;29.30;;;21.03;;
37543;SDS011;23385;52.038;20.322;2022-09-25T03:31:33;25.00;;;19.07;;
37543;SDS011;23385;52.038;20.322;2022-09-25T03:33:59;24.90;;;18.63;;
37543;SDS011;23385;52.038;20.322;2022-09-25T03:36:27;26.07;;;18.23;;
37543;SDS011;23385;52.038;20.322;2022-09-25T03:38:55;26.30;;;18.77;;
37543;SDS011;23385;52.038;20.322;2022-09-25T03:41:25;29.33;;;20.83;;
37543;SDS011;23385;52.038;20.322;2022-09-25T03:43:53;28.03;;;21.60;;
37543;SDS011;23385;52.038;20.322;2022-09-25T03:46:25;34.10;;;23.57;;
37543;SDS011;23385;52.038;20.322;2022-09-25T03:48:53;37.13;;;23.77;;
37543;SDS011;23385;52.038;20.322;2022-09-25T03:51:19;36.23;;;23.30;;
37543;SDS011;23385;52.038;20.322;2022-09-25T03:53:46;32.43;;;22.33;;
37543;SDS011;23385;52.038;20.322;2022-09-25T03:56:14;34.63;;;24.20;;
37543;SDS011;23385;52.038;20.322;2022-09-25T03:58:42;34.73;;;22.60;;
37543;SDS011;23385;52.038;20.322;2022-09-25T04:01:08;39.47;;;23.70;;
37543;SDS011;23385;52.038;20.322;2022-09-25T04:03:35;55.07;;;29.83;;
37543;SDS011;23385;52.038;20.322;2022-09-25T04:06:02;51.30;;;30.53;;
37543;SDS011;23385;52.038;20.322;2022-09-25T04:08:31;65.83;;;37.00;;
37543;SDS011;23385;52.038;20.322;2022-09-25T04:10:58;67.17;;;36.93;;
37543;SDS011;23385;52.038;20.322;2022-09-25T04:13:26;64.53;;;37.20;;
37543;SDS011;23385;52.038;20.322;2022-09-25T04:15:57;61.23;;;35.63;;
37543;SDS011;23385;52.038;20.322;2022-09-25T04:18:25;61.50;;;34.07;;
37543;SDS011;23385;52.038;20.322;2022-09-25T04:20:56;63.10;;;33.37;;
37543;SDS011;23385;52.038;20.322;2022-09-25T04:23:22;52.07;;;31.47;;
37543;SDS011;23385;52.038;20.322;2022-09-25T04:25:48;54.47;;;30.83;;
37543;SDS011;23385;52.038;20.322;2022-09-25T04:28:14;50.63;;;28.73;;
37543;SDS011;23385;52.038;20.322;2022-09-25T04:30:40;46.27;;;27.97;;
37543;SDS011;23385;52.038;20.322;2022-09-25T04:33:07;45.23;;;27.37;;
37543;SDS011;23385;52.038;20.322;2022-09-25T04:35:52;41.33;;;24.73;;
37543;SDS011;23385;52.038;20.322;2022-09-25T04:38:18;33.67;;;21.70;;
37543;SDS011;23385;52.038;20.322;2022-09-25T04:40:44;35.40;;;23.37;;
37543;SDS011;23385;52.038;20.322;2022-09-25T04:43:12;33.47;;;23.30;;
37543;SDS011;23385;52.038;20.322;2022-09-25T04:45:38;36.47;;;22.47;;
37543;SDS011;23385;52.038;20.322;2022-09-25T04:48:05;31.83;;;22.53;;
37543;SDS011;23385;52.038;20.322;2022-09-25T04:50:31;30.93;;;20.23;;
37543;SDS011;23385;52.038;20.322;2022-09-25T04:52:57;30.63;;;20.67;;
37543;SDS011;23385;52.038;20.322;2022-09-25T04:55:24;27.17;;;19.73;;
37543;SDS011;23385;52.038;20.322;2022-09-25T04:57:54;27.53;;;18.80;;
37543;SDS011;23385;52.038;20.322;2022-09-25T05:00:22;24.27;;;18.57;;
37543;SDS011;23385;52.038;20.322;2022-09-25T05:02:49;25.53;;;17.43;;
37543;SDS011;23385;52.038;20.322;2022-09-25T05:05:15;24.53;;;17.90;;
37543;SDS011;23385;52.038;20.322;2022-09-25T05:07:52;23.97;;;18.27;;
37543;SDS011;23385;52.038;20.322;2022-09-25T05:10:19;27.00;;;17.90;;
37543;SDS011;23385;52.038;20.322;2022-09-25T05:12:46;24.53;;;18.30;;
37543;SDS011;23385;52.038;20.322;2022-09-25T05:15:12;25.13;;;17.50;;
37543;SDS011;23385;52.038;20.322;2022-09-25T05:17:38;28.43;;;17.27;;
37543;SDS011;23385;52.038;20.322;2022-09-25T05:20:04;26.10;;;18.77;;
37543;SDS011;23385;52.038;20.322;2022-09-25T05:22:31;27.20;;;17.63;;
37543;SDS011;23385;52.038;20.322;2022-09-25T05:24:58;22.93;;;16.93;;
37543;SDS011;23385;52.038;20.322;2022-09-25T05:27:25;26.20;;;18.37;;
37543;SDS011;23385;52.038;20.322;2022-09-25T05:29:50;29.13;;;19.27;;
37543;SDS011;23385;52.038;20.322;2022-09-25T05:32:16;24.43;;;18.73;;
37543;SDS011;23385;52.038;20.322;2022-09-25T05:34:42;24.77;;;18.33;;
37543;SDS011;23385;52.038;20.322;2022-09-25T05:37:08;25.70;;;18.40;;
37543;SDS011;23385;52.038;20.322;2022-09-25T05:39:34;29.53;;;18.37;;
37543;SDS011;23385;52.038;20.322;2022-09-25T05:42:00;24.43;;;18.00;;
37543;SDS011;23385;52.038;20.322;2022-09-25T05:44:27;28.07;;;18.47;;
37543;SDS011;23385;52.038;20.322;2022-09-25T05:46:53;26.97;;;18.30;;
37543;SDS011;23385;52.038;20.322;2022-09-25T05:49:20;23.93;;;18.50;;
37543;SDS011;23385;52.038;20.322;2022-09-25T05:51:47;26.03;;;17.83;;
37543;SDS011;23385;52.038;20.322;2022-09-25T05:54:13;24.00;;;18.53;;
37543;SDS011;23385;52.038;20.322;2022-09-25T05:56:39;23.97;;;17.13;;
37543;SDS011;23385;52.038;20.322;2022-09-25T05:59:06;21.93;;;18.13;;
37543;SDS011;23385;52.038;20.322;2022-09-25T06:01:31;21.53;;;16.73;;
37543;SDS011;23385;52.038;20.322;2022-09-25T06:03:57;28.50;;;18.40;;
37543;SDS011;23385;52.038;20.322;2022-09-25T06:06:23;23.23;;;18.23;;
37543;SDS011;23385;52.038;20.322;2022-09-25T06:08:49;23.80;;;18.07;;
37543;SDS011;23385;52.038;20.322;2022-09-25T06:11:14;21.53;;;16.33;;
37543;SDS011;23385;52.038;20.322;2022-09-25T06:13:40;25.57;;;18.87;;
37543;SDS011;23385;52.038;20.322;2022-09-25T06:16:14;24.27;;;19.40;;
37543;SDS011;23385;52.038;20.322;2022-09-25T06:18:43;27.53;;;19.23;;
37543;SDS011;23385;52.038;20.322;2022-09-25T06:21:11;36.20;;;22.20;;
37543;SDS011;23385;52.038;20.322;2022-09-25T06:23:37;31.73;;;21.13;;
37543;SDS011;23385;52.038;20.322;2022-09-25T06:26:03;29.53;;;21.23;;
37543;SDS011;23385;52.038;20.322;2022-09-25T06:28:31;28.47;;;22.60;;
37543;SDS011;23385;52.038;20.322;2022-09-25T06:31:00;28.20;;;22.67;;
37543;SDS011;23385;52.038;20.322;2022-09-25T06:33:27;28.97;;;21.60;;
37543;SDS011;23385;52.038;20.322;2022-09-25T06:35:53;28.87;;;21.97;;
37543;SDS011;23385;52.038;20.322;2022-09-25T06:38:19;29.20;;;21.43;;
37543;SDS011;23385;52.038;20.322;2022-09-25T06:40:45;28.37;;;20.13;;
37543;SDS011;23385;52.038;20.322;2022-09-25T06:43:12;24.10;;;18.77;;
37543;SDS011;23385;52.038;20.322;2022-09-25T06:45:39;25.37;;;19.57;;
37543;SDS011;23385;52.038;20.322;2022-09-25T06:48:10;26.67;;;19.23;;
37543;SDS011;23385;52.038;20.322;2022-09-25T06:53:17;23.87;;;19.47;;
37543;SDS011;23385;52.038;20.322;2022-09-25T06:55:44;24.83;;;19.13;;
37543;SDS011;23385;52.038;20.322;2022-09-25T06:58:14;25.93;;;18.53;;
37543;SDS011;23385;52.038;20.322;2022-09-25T07:00:45;24.80;;;17.97;;
37543;SDS011;23385;52.038;20.322;2022-09-25T07:03:16;22.70;;;18.60;;
37543;SDS011;23385;52.038;20.322;2022-09-25T07:06:00;23.93;;;19.03;;
37543;SDS011;23385;52.038;20.322;2022-09-25T07:08:28;24.13;;;18.93;;
37543;SDS011;23385;52.038;20.322;2022-09-25T07:10:54;25.90;;;20.07;;
37543;SDS011;23385;52.038;20.322;2022-09-25T07:13:23;26.47;;;19.07;;
37543;SDS011;23385;52.038;20.322;2022-09-25T07:15:57;25.63;;;19.27;;
37543;SDS011;23385;52.038;20.322;2022-09-25T07:18:25;24.03;;;18.53;;
37543;SDS011;23385;52.038;20.322;2022-09-25T07:20:53;22.23;;;18.13;;
37543;SDS011;23385;52.038;20.322;2022-09-25T07:23:23;25.80;;;17.47;;
37543;SDS011;23385;52.038;20.322;2022-09-25T07:25:49;23.57;;;18.40;;
37543;SDS011;23385;52.038;20.322;2022-09-25T07:28:16;23.60;;;17.83;;
37543;SDS011;23385;52.038;20.322;2022-09-25T07:30:44;25.60;;;18.23;;
37543;SDS011;23385;52.038;20.322;2022-09-25T07:33:10;27.27;;;19.53;;
37543;SDS011;23385;52.038;20.322;2022-09-25T07:35:37;23.13;;;19.50;;
37543;SDS011;23385;52.038;20.322;2022-09-25T07:38:03;26.20;;;18.63;;
37543;SDS011;23385;52.038;20.322;2022-09-25T07:40:32;24.17;;;18.60;;
37543;SDS011;23385;52.038;20.322;2022-09-25T07:43:05;22.90;;;18.23;;
37543;SDS011;23385;52.038;20.322;2022-09-25T07:45:31;25.43;;;18.37;;
37543;SDS011;23385;52.038;20.322;2022-09-25T07:47:57;27.93;;;18.10;;
37543;SDS011;23385;52.038;20.322;2022-09-25T07:50:27;25.03;;;18.57;;
37543;SDS011;23385;52.038;20.322;2022-09-25T07:52:53;22.67;;;18.00;;
37543;SDS011;23385;52.038;20.322;2022-09-25T07:55:19;23.90;;;18.17;;
37543;SDS011;23385;52.038;20.322;2022-09-25T07:57:46;27.17;;;18.53;;
37543;SDS011;23385;52.038;20.322;2022-09-25T08:00:13;26.27;;;19.47;;
37543;SDS011;23385;52.038;20.322;2022-09-25T08:02:39;33.40;;;20.50;;
37543;SDS011;23385;52.038;20.322;2022-09-25T08:05:05;31.97;;;21.03;;
37543;SDS011;23385;52.038;20.322;2022-09-25T08:07:31;30.60;;;20.57;;
37543;SDS011;23385;52.038;20.322;2022-09-25T08:09:57;29.27;;;20.90;;
37543;SDS011;23385;52.038;20.322;2022-09-25T08:12:23;30.20;;;21.53;;
37543;SDS011;23385;52.038;20.322;2022-09-25T08:14:50;30.20;;;21.67;;
37543;SDS011;23385;52.038;20.322;2022-09-25T08:17:16;24.80;;;18.00;;
37543;SDS011;23385;52.038;20.322;2022-09-25T08:19:43;23.43;;;16.73;;
37543;SDS011;23385;52.038;20.322;2022-09-25T08:22:10;20.70;;;16.37;;
37543;SDS011;23385;52.038;20.322;2022-09-25T08:24:36;21.83;;;15.90;;
37543;SDS011;23385;52.038;20.322;2022-09-25T08:27:02;20.40;;;15.60;;
37543;SDS011;23385;52.038;20.322;2022-09-25T08:29:29;20.97;;;15.37;;
37543;SDS011;23385;52.038;20.322;2022-09-25T08:31:56;18.13;;;14.03;;
37543;SDS011;23385;52.038;20.322;2022-09-25T08:34:22;19.10;;;14.80;;
37543;SDS011;23385;52.038;20.322;2022-09-25T08:36:48;23.97;;;13.67;;
37543;SDS011;23385;52.038;20.322;2022-09-25T08:39:15;14.93;;;13.03;;
37543;SDS011;23385;52.038;20.322;2022-09-25T08:41:48;15.23;;;12.20;;
37543;SDS011;23385;52.038;20.322;2022-09-25T08:47:17;17.80;;;12.10;;
37543;SDS011;23385;52.038;20.322;2022-09-25T08:50:05;14.98;;;12.27;;
37543;SDS011;23385;52.038;20.322;2022-09-25T08:52:36;14.70;;;11.93;;
37543;SDS011;23385;52.038;20.322;2022-09-25T08:55:15;15.32;;;11.13;;
37543;SDS011;23385;52.038;20.322;2022-09-25T08:58:20;13.68;;;10.02;;
37543;SDS011;23385;52.038;20.322;2022-09-25T09:00:53;11.55;;;9.48;;
37543;SDS011;23385;52.038;20.322;2022-09-25T09:03:22;13.35;;;9.45;;
37543;SDS011;23385;52.038;20.322;2022-09-25T09:05:58;12.07;;;10.15;;
37543;SDS011;23385;52.038;20.322;2022-09-25T09:08:27;11.80;;;9.60;;
37543;SDS011;23385;52.038;20.322;2022-09-25T09:10:59;9.43;;;7.78;;
37543;SDS011;23385;52.038;20.322;2022-09-25T09:16:20;12.07;;;7.25;;
37543;SDS011;23385;52.038;20.322;2022-09-25T09:18:50;9.45;;;7.93;;
37543;SDS011;23385;52.038;20.322;2022-09-25T09:27:25;9.82;;;8.00;;
37543;SDS011;23385;52.038;20.322;2022-09-25T09:30:08;8.88;;;7.80;;
37543;SDS011;23385;52.038;20.322;2022-09-25T09:41:17;9.32;;;7.43;;
37543;SDS011;23385;52.038;20.322;2022-09-25T09:49:35;7.25;;;6.20;;
37543;SDS011;23385;52.038;20.322;2022-09-25T09:52:15;8.02;;;5.70;;
37543;SDS011;23385;52.038;20.322;2022-09-25T09:57:23;6.90;;;6.20;;
37543;SDS011;23385;52.038;20.322;2022-09-25T09:59:52;7.18;;;5.72;;
37543;SDS011;23385;52.038;20.322;2022-09-25T10:05:15;7.10;;;6.35;;
37543;SDS011;23385;52.038;20.322;2022-09-25T10:07:58;7.03;;;6.20;;
37543;SDS011;23385;52.038;20.322;2022-09-25T10:10:32;8.48;;;6.88;;
37543;SDS011;23385;52.038;20.322;2022-09-25T10:13:01;7.88;;;6.85;;
37543;SDS011;23385;52.038;20.322;2022-09-25T10:15:35;8.50;;;7.15;;
37543;SDS011;23385;52.038;20.322;2022-09-25T10:18:07;7.85;;;6.95;;
37543;SDS011;23385;52.038;20.322;2022-09-25T10:20:56;8.02;;;6.57;;
37543;SDS011;23385;52.038;20.322;2022-09-25T10:26:31;8.13;;;7.10;;
37543;SDS011;23385;52.038;20.322;2022-09-25T10:28:58;8.55;;;7.65;;
37543;SDS011;23385;52.038;20.322;2022-09-25T10:31:33;10.55;;;7.22;;
37543;SDS011;23385;52.038;20.322;2022-09-25T10:36:33;10.52;;;7.30;;
37543;SDS011;23385;52.038;20.322;2022-09-25T10:42:07;6.80;;;6.05;;
37543;SDS011;23385;52.038;20.322;2022-09-25T10:44:58;12.50;;;6.90;;
37543;SDS011;23385;52.038;20.322;2022-09-25T10:47:28;8.82;;;6.95;;
37543;SDS011;23385;52.038;20.322;2022-09-25T10:50:16;7.45;;;6.55;;
37543;SDS011;23385;52.038;20.322;2022-09-25T10:52:55;8.95;;;6.38;;
37543;SDS011;23385;52.038;20.322;2022-09-25T10:55:27;10.50;;;6.38;;
37543;SDS011;23385;52.038;20.322;2022-09-25T10:58:02;7.55;;;6.15;;
37543;SDS011;23385;52.038;20.322;2022-09-25T11:03:17;6.72;;;5.15;;
37543;SDS011;23385;52.038;20.322;2022-09-25T11:08:52;7.50;;;5.20;;
37543;SDS011;23385;52.038;20.322;2022-09-25T11:11:38;6.85;;;5.28;;
37543;SDS011;23385;52.038;20.322;2022-09-25T11:14:06;5.32;;;4.82;;
37543;SDS011;23385;52.038;20.322;2022-09-25T11:16:47;5.15;;;4.43;;
37543;SDS011;23385;52.038;20.322;2022-09-25T11:19:21;7.38;;;5.97;;
37543;SDS011;23385;52.038;20.322;2022-09-25T11:22:33;12.60;;;5.53;;
37543;SDS011;23385;52.038;20.322;2022-09-25T11:24:43;7.45;;;5.53;;
37543;SDS011;23385;52.038;20.322;2022-09-25T11:27:39;7.20;;;5.45;;
37543;SDS011;23385;52.038;20.322;2022-09-25T11:30:18;6.72;;;5.18;;
37543;SDS011;23385;52.038;20.322;2022-09-25T11:37:47;7.30;;;5.68;;
37543;SDS011;23385;52.038;20.322;2022-09-25T11:49:25;6.10;;;5.50;;
37543;SDS011;23385;52.038;20.322;2022-09-25T11:54:56;8.05;;;5.53;;
37543;SDS011;23385;52.038;20.322;2022-09-25T12:06:24;6.68;;;4.95;;
37543;SDS011;23385;52.038;20.322;2022-09-25T12:28:33;6.22;;;5.50;;
37543;SDS011;23385;52.038;20.322;2022-09-25T12:34:11;5.47;;;4.97;;
37543;SDS011;23385;52.038;20.322;2022-09-25T12:39:48;5.43;;;4.85;;
37543;SDS011;23385;52.038;20.322;2022-09-25T12:42:20;5.53;;;5.03;;
37543;SDS011;23385;52.038;20.322;2022-09-25T12:47:44;6.70;;;5.40;;
37543;SDS011;23385;52.038;20.322;2022-09-25T12:50:23;9.35;;;4.85;;
37543;SDS011;23385;52.038;20.322;2022-09-25T12:52:55;6.90;;;5.53;;
37543;SDS011;23385;52.038;20.322;2022-09-25T12:55:36;8.15;;;5.55;;
37543;SDS011;23385;52.038;20.322;2022-09-25T13:00:51;7.53;;;5.70;;
37543;SDS011;23385;52.038;20.322;2022-09-25T13:06:30;8.30;;;5.43;;
37543;SDS011;23385;52.038;20.322;2022-09-25T13:09:23;10.00;;;5.57;;
37543;SDS011;23385;52.038;20.322;2022-09-25T13:12:07;7.75;;;5.63;;
37543;SDS011;23385;52.038;20.322;2022-09-25T13:14:47;6.70;;;5.45;;
37543;SDS011;23385;52.038;20.322;2022-09-25T13:17:18;7.47;;;5.68;;
37543;SDS011;23385;52.038;20.322;2022-09-25T13:19:44;5.82;;;5.15;;
37543;SDS011;23385;52.038;20.322;2022-09-25T13:22:31;6.07;;;5.22;;
37543;SDS011;23385;52.038;20.322;2022-09-25T13:25:05;7.35;;;5.28;;
37543;SDS011;23385;52.038;20.322;2022-09-25T13:27:40;6.13;;;5.53;;
37543;SDS011;23385;52.038;20.322;2022-09-25T13:30:17;6.95;;;5.15;;
37543;SDS011;23385;52.038;20.322;2022-09-25T13:32:48;5.72;;;5.22;;
37543;SDS011;23385;52.038;20.322;2022-09-25T13:35:18;6.95;;;5.43;;
37543;SDS011;23385;52.038;20.322;2022-09-25T13:37:45;8.45;;;5.32;;
37543;SDS011;23385;52.038;20.322;2022-09-25T13:40:23;7.28;;;5.55;;
37543;SDS011;23385;52.038;20.322;2022-09-25T13:48:47;5.50;;;5.00;;
37543;SDS011;23385;52.038;20.322;2022-09-25T13:53:50;6.28;;;5.60;;
37543;SDS011;23385;52.038;20.322;2022-09-25T13:56:43;5.90;;;5.15;;
37543;SDS011;23385;52.038;20.322;2022-09-25T14:01:45;7.22;;;5.57;;
37543;SDS011;23385;52.038;20.322;2022-09-25T14:07:18;6.93;;;5.32;;
37543;SDS011;23385;52.038;20.322;2022-09-25T14:09:50;9.35;;;5.32;;
37543;SDS011;23385;52.038;20.322;2022-09-25T14:12:25;12.43;;;8.73;;
37543;SDS011;23385;52.038;20.322;2022-09-25T14:14:54;6.80;;;6.10;;
37543;SDS011;23385;52.038;20.322;2022-09-25T14:17:44;8.60;;;5.90;;
37543;SDS011;23385;52.038;20.322;2022-09-25T14:23:04;11.75;;;9.27;;
37543;SDS011;23385;52.038;20.322;2022-09-25T14:25:37;8.52;;;6.60;;
37543;SDS011;23385;52.038;20.322;2022-09-25T14:28:17;7.15;;;6.00;;
37543;SDS011;23385;52.038;20.322;2022-09-25T14:30:49;6.00;;;5.30;;
37543;SDS011;23385;52.038;20.322;2022-09-25T14:33:22;5.60;;;5.10;;
37543;SDS011;23385;52.038;20.322;2022-09-25T14:36:06;7.03;;;4.97;;
37543;SDS011;23385;52.038;20.322;2022-09-25T14:39:09;5.90;;;5.30;;
37543;SDS011;23385;52.038;20.322;2022-09-25T14:41:50;6.00;;;5.40;;
37543;SDS011;23385;52.038;20.322;2022-09-25T14:44:22;6.38;;;5.70;;
37543;SDS011;23385;52.038;20.322;2022-09-25T14:46:54;6.00;;;5.38;;
37543;SDS011;23385;52.038;20.322;2022-09-25T14:49:26;5.80;;;5.22;;
37543;SDS011;23385;52.038;20.322;2022-09-25T14:52:12;7.20;;;5.30;;
37543;SDS011;23385;52.038;20.322;2022-09-25T14:54:41;8.05;;;5.60;;
37543;SDS011;23385;52.038;20.322;2022-09-25T14:57:10;6.80;;;5.75;;
37543;SDS011;23385;52.038;20.322;2022-09-25T14:59:42;6.47;;;5.72;;
37543;SDS011;23385;52.038;20.322;2022-09-25T15:02:30;8.27;;;5.90;;
37543;SDS011;23385;52.038;20.322;2022-09-25T15:05:17;7.93;;;5.50;;
37543;SDS011;23385;52.038;20.322;2022-09-25T15:07:49;6.13;;;5.53;;
37543;SDS011;23385;52.038;20.322;2022-09-25T15:15:42;16.15;;;6.15;;
37543;SDS011;23385;52.038;20.322;2022-09-25T15:18:30;7.55;;;6.03;;
37543;SDS011;23385;52.038;20.322;2022-09-25T15:20:57;8.45;;;6.93;;
37543;SDS011;23385;52.038;20.322;2022-09-25T15:23:25;7.50;;;5.80;;
37543;SDS011;23385;52.038;20.322;2022-09-25T15:25:52;9.48;;;6.22;;
37543;SDS011;23385;52.038;20.322;2022-09-25T15:28:20;6.13;;;5.45;;
37543;SDS011;23385;52.038;20.322;2022-09-25T15:30:53;9.18;;;6.30;;
37543;SDS011;23385;52.038;20.322;2022-09-25T15:33:24;8.88;;;6.72;;
37543;SDS011;23385;52.038;20.322;2022-09-25T15:35:57;8.38;;;6.38;;
37543;SDS011;23385;52.038;20.322;2022-09-25T15:38:28;9.38;;;6.75;;
37543;SDS011;23385;52.038;20.322;2022-09-25T15:40:56;9.55;;;6.47;;
37543;SDS011;23385;52.038;20.322;2022-09-25T15:43:22;9.82;;;6.95;;
37543;SDS011;23385;52.038;20.322;2022-09-25T15:45:53;8.70;;;7.05;;
37543;SDS011;23385;52.038;20.322;2022-09-25T15:48:29;8.63;;;6.95;;
37543;SDS011;23385;52.038;20.322;2022-09-25T15:51:39;9.52;;;7.35;;
37543;SDS011;23385;52.038;20.322;2022-09-25T15:53:50;9.90;;;7.43;;
37543;SDS011;23385;52.038;20.322;2022-09-25T15:58:50;10.88;;;8.00;;
37543;SDS011;23385;52.038;20.322;2022-09-25T16:01:26;8.73;;;7.80;;
37543;SDS011;23385;52.038;20.322;2022-09-25T16:04:21;10.77;;;8.00;;
37543;SDS011;23385;52.038;20.322;2022-09-25T16:09:48;9.13;;;7.70;;
37543;SDS011;23385;52.038;20.322;2022-09-25T16:14:54;9.70;;;8.18;;
37543;SDS011;23385;52.038;20.322;2022-09-25T16:17:34;13.40;;;8.63;;
37543;SDS011;23385;52.038;20.322;2022-09-25T16:20:27;10.32;;;7.90;;
37543;SDS011;23385;52.038;20.322;2022-09-25T16:22:50;10.93;;;7.93;;
37543;SDS011;23385;52.038;20.322;2022-09-25T16:25:26;11.50;;;8.35;;
37543;SDS011;23385;52.038;20.322;2022-09-25T16:28:07;10.85;;;7.55;;
37543;SDS011;23385;52.038;20.322;2022-09-25T16:30:49;14.63;;;7.95;;
37543;SDS011;23385;52.038;20.322;2022-09-25T16:33:27;16.55;;;12.30;;
37543;SDS011;23385;52.038;20.322;2022-09-25T16:36:22;15.00;;;12.57;;
37543;SDS011;23385;52.038;20.322;2022-09-25T16:39:32;17.50;;;12.82;;
37543;SDS011;23385;52.038;20.322;2022-09-25T16:41:46;13.43;;;12.13;;
37543;SDS011;23385;52.038;20.322;2022-09-25T16:44:20;15.35;;;12.05;;
37543;SDS011;23385;52.038;20.322;2022-09-25T16:47:05;17.97;;;11.60;;
37543;SDS011;23385;52.038;20.322;2022-09-25T16:49:38;16.25;;;10.82;;
37543;SDS011;23385;52.038;20.322;2022-09-25T16:52:05;15.67;;;9.90;;
37543;SDS011;23385;52.038;20.322;2022-09-25T16:54:32;11.45;;;10.15;;
37543;SDS011;23385;52.038;20.322;2022-09-25T16:57:02;11.00;;;9.90;;
37543;SDS011;23385;52.038;20.322;2022-09-25T16:59:28;12.47;;;9.77;;
37543;SDS011;23385;52.038;20.322;2022-09-25T17:01:56;11.70;;;9.17;;
37543;SDS011;23385;52.038;20.322;2022-09-25T17:04:29;14.13;;;9.37;;
37543;SDS011;23385;52.038;20.322;2022-09-25T17:06:56;13.33;;;9.23;;
37543;SDS011;23385;52.038;20.322;2022-09-25T17:09:26;10.57;;;9.03;;
37543;SDS011;23385;52.038;20.322;2022-09-25T17:11:58;14.37;;;10.47;;
37543;SDS011;23385;52.038;20.322;2022-09-25T17:14:29;12.33;;;9.33;;
37543;SDS011;23385;52.038;20.322;2022-09-25T17:16:55;11.73;;;10.23;;
37543;SDS011;23385;52.038;20.322;2022-09-25T17:19:22;13.33;;;9.77;;
37543;SDS011;23385;52.038;20.322;2022-09-25T17:21:48;15.17;;;9.80;;
37543;SDS011;23385;52.038;20.322;2022-09-25T17:24:20;14.67;;;10.03;;
37543;SDS011;23385;52.038;20.322;2022-09-25T17:26:48;14.23;;;9.53;;
37543;SDS011;23385;52.038;20.322;2022-09-25T17:29:16;16.50;;;9.53;;
37543;SDS011;23385;52.038;20.322;2022-09-25T17:31:42;14.93;;;9.67;;
37543;SDS011;23385;52.038;20.322;2022-09-25T17:34:17;13.57;;;12.17;;
37543;SDS011;23385;52.038;20.322;2022-09-25T17:36:52;15.23;;;9.30;;
37543;SDS011;23385;52.038;20.322;2022-09-25T17:39:19;10.73;;;8.43;;
37543;SDS011;23385;52.038;20.322;2022-09-25T17:41:45;11.53;;;8.83;;
37543;SDS011;23385;52.038;20.322;2022-09-25T17:44:12;16.90;;;8.87;;